Time;durP1;ratioP1;P1;durP2;ratioP2;P2;SDS_P1;SDS_P2;PMS_P1;PMS_P2;Temp;Humidity;BMP_temperature;BMP_pressure;BME280_temperature;BME280_humidity;BME280_pressure;Samples;Min_cycle;Max_cycle;Signal;HPM_P1;HPM_P2
2023/09/26 00:01:16;;;;;;;;;;;21.10;59.40;;;;;;10412262;28;19940;-70
2023/09/26 00:06:20;;;;;;;;;;;21.10;59.40;;;;;;10393431;28;19933;-70
2023/09/26 00:11:21;;;;;;;;;;;21.10;59.40;;;;;;10394620;28;19972;-70
2023/09/26 00:16:23;;;;;;;;;;;21.10;59.40;;;;;;10422306;28;19933;-70
2023/09/26 00:21:29;;;;;;;;;;;21.10;59.30;;;;;;10414309;28;35545;-70
2023/09/26 00:26:31;;;;;;;;;;;21.10;59.40;;;;;;10396821;28;19940;-69
2023/09/26 00:31:33;;;;;;;;;;;21.10;59.40;;;;;;10395412;28;20304;-70
2023/09/26 00:36:35;;;;;;;;;;;21.10;59.40;;;;;;10392636;28;19934;-70
2023/09/26 00:41:36;;;;;;;;;;;21.10;59.40;;;;;;10392876;28;20024;-69
2023/09/26 00:46:41;;;;;;;;;;;21.10;59.30;;;;;;10393897;28;19933;-70
2023/09/26 00:51:43;;;;;;;;;;;21.10;59.30;;;;;;10399785;28;19933;-69
2023/09/26 00:56:45;;;;;;;;;;;21.10;58.90;;;;;;10392163;28;20024;-70
2023/09/26 01:01:49;;;;;;;;;;;21.10;58.20;;;;;;10394834;28;19934;-70
2023/09/26 01:06:51;;;;;;;;;;;21.10;57.70;;;;;;10385351;28;19940;-69
2023/09/26 01:11:53;;;;;;;;;;;21.10;57.70;;;;;;10402302;28;19934;-69
2023/09/26 01:16:55;;;;;;;;;;;21.10;57.50;;;;;;10394554;28;20702;-69
2023/09/26 01:21:57;;;;;;;;;;;21.10;57.20;;;;;;10395090;28;19934;-68
2023/09/26 01:27:00;;;;;;;;;;;21.10;57.10;;;;;;10391599;28;19934;-68
2023/09/26 01:32:01;;;;;;;;;;;21.10;57.00;;;;;;10407899;28;20032;-69
2023/09/26 01:37:03;;;;;;;;;;;21.10;56.80;;;;;;10390640;28;20024;-70
2023/09/26 01:42:05;;;;;;;;;;;21.10;56.60;;;;;;10392115;28;19933;-70
2023/09/26 01:47:08;;;;;;;;;;;21.10;56.40;;;;;;10392794;28;19964;-69
2023/09/26 01:52:11;;;;;;;;;;;21.00;56.30;;;;;;10389683;28;20032;-69
2023/09/26 01:57:13;;;;;;;;;;;21.10;56.20;;;;;;10407399;28;19934;-70
2023/09/26 02:02:14;;;;;;;;;;;21.10;56.20;;;;;;10392126;28;19933;-69
2023/09/26 02:07:16;;;;;;;;;;;21.10;56.00;;;;;;10387561;28;19933;-69
2023/09/26 02:12:19;;;;;;;;;;;21.00;55.90;;;;;;10395324;28;20048;-70
2023/09/26 02:17:21;;;;;;;;;;;21.00;55.80;;;;;;10400288;28;19933;-69
2023/09/26 02:22:23;;;;;;;;;;;21.00;55.70;;;;;;10393158;28;19933;-69
2023/09/26 02:27:24;;;;;;;;;;;21.00;55.70;;;;;;10390320;28;20028;-70
2023/09/26 02:32:26;;;;;;;;;;;21.00;55.60;;;;;;10391949;28;19933;-69
2023/09/26 02:37:29;;;;;;;;;;;21.00;55.60;;;;;;10386279;28;19940;-69
2023/09/26 02:42:31;;;;;;;;;;;21.00;55.50;;;;;;10404783;28;20401;-70
2023/09/26 02:47:33;;;;;;;;;;;21.00;55.40;;;;;;10387621;28;20409;-69
2023/09/26 02:52:36;;;;;;;;;;;21.00;55.40;;;;;;10391776;28;19933;-69
2023/09/26 02:57:37;;;;;;;;;;;21.00;55.40;;;;;;10389543;28;20040;-68
2023/09/26 03:02:41;;;;;;;;;;;20.90;55.20;;;;;;10395823;28;19939;-69
2023/09/26 03:07:43;;;;;;;;;;;20.90;55.20;;;;;;10395811;28;20337;-70
2023/09/26 03:12:46;;;;;;;;;;;21.00;55.20;;;;;;10396606;28;19934;-69
2023/09/26 03:17:50;;;;;;;;;;;21.00;55.10;;;;;;10397018;28;19946;-69
2023/09/26 03:22:52;;;;;;;;;;;21.00;54.90;;;;;;10395727;28;19939;-71
2023/09/26 03:27:59;;;;;;;;;;;21.00;55.00;;;;;;10395257;28;19933;-70
2023/09/26 03:33:01;;;;;;;;;;;21.00;54.90;;;;;;10394050;28;19933;-69
2023/09/26 03:38:03;;;;;;;;;;;21.00;55.00;;;;;;10395193;28;20028;-70
2023/09/26 03:43:05;;;;;;;;;;;21.00;54.90;;;;;;10396291;28;19934;-70
2023/09/26 03:48:07;;;;;;;;;;;21.00;54.80;;;;;;10396056;28;20001;-69
2023/09/26 03:53:10;;;;;;;;;;;21.00;54.80;;;;;;10405670;28;19934;-69
2023/09/26 03:58:11;;;;;;;;;;;21.00;54.60;;;;;;10386613;28;19934;-69
2023/09/26 04:03:13;;;;;;;;;;;21.00;54.60;;;;;;10398032;28;20396;-70
2023/09/26 04:08:15;;;;;;;;;;;21.00;54.60;;;;;;10392545;28;19940;-70
2023/09/26 04:13:16;;;;;;;;;;;21.00;54.50;;;;;;10412407;28;19934;-70
2023/09/26 04:18:20;;;;;;;;;;;21.00;54.30;;;;;;10393646;28;19934;-70
2023/09/26 04:23:22;;;;;;;;;;;21.00;54.40;;;;;;10381410;28;19967;-70
2023/09/26 04:28:24;;;;;;;;;;;21.10;54.30;;;;;;10393062;28;19941;-69
2023/09/26 04:33:25;;;;;;;;;;;21.00;54.10;;;;;;10394818;28;20479;-70
2023/09/26 04:38:27;;;;;;;;;;;21.00;54.20;;;;;;10394174;28;19934;-70
2023/09/26 04:43:30;;;;;;;;;;;21.00;54.00;;;;;;10382460;28;19941;-68
2023/09/26 04:48:32;;;;;;;;;;;21.00;54.00;;;;;;10834818;22;20229;-46
2023/09/26 04:53:33;;;;;;;;;;;21.00;54.00;;;;;;10390038;28;19933;-46
2023/09/26 04:58:35;;;;;;;;;;;21.00;54.90;;;;;;10392148;28;20059;-46
2023/09/26 05:03:37;;;;;;;;;;;21.00;53.80;;;;;;10383526;28;20518;-47
2023/09/26 05:08:39;;;;;;;;;;;21.00;53.90;;;;;;10404526;28;19933;-44
2023/09/26 05:13:42;;;;;;;;;;;21.00;53.90;;;;;;10416519;28;20201;-44
2023/09/26 05:18:43;;;;;;;;;;;21.00;53.80;;;;;;10405072;28;19933;-44
2023/09/26 05:23:45;;;;;;;;;;;20.90;53.70;;;;;;10385756;28;20296;-45
2023/09/26 05:28:47;;;;;;;;;;;21.00;54.50;;;;;;10409982;28;19984;-45
2023/09/26 05:33:52;;;;;;;;;;;20.90;56.60;;;;;;10401283;28;20411;-44
2023/09/26 05:38:54;;;;;;;;;;;20.90;57.20;;;;;;10388569;28;20385;-46
2023/09/26 05:43:56;;;;;;;;;;;20.90;57.30;;;;;;10389512;28;19944;-46
2023/09/26 05:48:58;;;;;;;;;;;20.90;57.30;;;;;;10380565;28;92904;-44
2023/09/26 05:53:59;;;;;;;;;;;20.90;57.60;;;;;;10248780;28;93710;-44
2023/09/26 05:59:01;;;;;;;;;;;20.90;57.60;;;;;;10246231;28;94832;-42
2023/09/26 06:04:03;;;;;;;;;;;20.90;59.20;;;;;;10259882;28;94709;-42
2023/09/26 06:09:05;;;;;;;;;;;20.90;59.60;;;;;;10231185;28;96909;-42
2023/09/26 06:14:06;;;;;;;;;;;20.90;59.30;;;;;;10233286;28;93172;-45
2023/09/26 06:19:08;;;;;;;;;;;20.90;59.40;;;;;;10265263;28;94118;-43
2023/09/26 06:24:10;;;;;;;;;;;20.80;59.10;;;;;;10256226;28;94240;-44
2023/09/26 06:29:12;;;;;;;;;;;20.70;58.90;;;;;;10234485;28;93793;-45
2023/09/26 06:34:13;;;;;;;;;;;20.70;60.50;;;;;;10233098;28;94521;-44
2023/09/26 06:39:15;;;;;;;;;;;20.60;60.00;;;;;;10237949;28;94437;-47
2023/09/26 06:44:17;;;;;;;;;;;20.60;60.40;;;;;;10252693;28;93776;-44
2023/09/26 06:49:19;;;;;;;;;;;20.60;60.40;;;;;;10238049;28;93743;-41
2023/09/26 06:54:21;;;;;;;;;;;20.70;61.10;;;;;;10240292;28;94396;-42
2023/09/26 06:59:23;;;;;;;;;;;20.60;60.40;;;;;;10252715;28;96966;-40
2023/09/26 07:04:25;;;;;;;;;;;20.60;60.60;;;;;;10239280;28;94282;-41
2023/09/26 07:09:27;;;;;;;;;;;20.50;60.60;;;;;;10238447;28;93335;-44
2023/09/26 07:14:32;;;;;;;;;;;20.50;61.10;;;;;;10240158;28;94018;-45
2023/09/26 07:19:34;;;;;;;;;;;20.40;61.20;;;;;;10239812;28;94247;-43
2023/09/26 07:24:37;;;;;;;;;;;20.40;61.30;;;;;;10240924;28;93993;-41
2023/09/26 07:29:52;;;;;;;;;;;20.40;61.60;;;;;;10252229;28;93536;-45
2023/09/26 07:34:54;;;;;;;;;;;20.40;63.60;;;;;;10239681;28;93788;-43
2023/09/26 07:39:56;;;;;;;;;;;20.40;65.00;;;;;;10262602;28;94798;-42
2023/09/26 07:45:00;;;;;;;;;;;20.40;64.90;;;;;;10257493;28;94403;-41
2023/09/26 07:50:02;;;;;;;;;;;20.50;64.60;;;;;;10245464;28;96569;-40
2023/09/26 07:55:05;;;;;;;;;;;20.50;64.40;;;;;;10233428;28;94582;-42
2023/09/26 08:00:11;;;;;;;;;;;20.50;64.30;;;;;;10221504;28;94700;-41
2023/09/26 08:05:13;;;;;;;;;;;20.60;64.00;;;;;;10246630;28;94739;-41
2023/09/26 08:10:14;;;;;;;;;;;20.60;63.80;;;;;;10271666;28;94051;-41
2023/09/26 08:15:16;;;;;;;;;;;20.60;63.50;;;;;;10237258;28;95044;-42
2023/09/26 08:20:18;;;;;;;;;;;20.60;63.40;;;;;;10237916;28;94598;-43
2023/09/26 08:25:19;;;;;;;;;;;20.60;63.10;;;;;;10235396;28;93662;-42
2023/09/26 08:30:24;;;;;;;;;;;20.60;63.00;;;;;;10237264;28;94511;-46
2023/09/26 08:35:26;;;;;;;;;;;20.60;62.90;;;;;;10243450;28;94573;-41
2023/09/26 08:40:28;;;;;;;;;;;20.70;62.70;;;;;;10252012;28;97313;-41
2023/09/26 08:45:31;;;;;;;;;;;20.70;62.80;;;;;;10236649;28;94067;-41
2023/09/26 08:50:33;;;;;;;;;;;20.70;62.70;;;;;;10255960;28;94447;-41
2023/09/26 08:55:36;;;;;;;;;;;20.60;62.60;;;;;;10248011;28;94914;-40
2023/09/26 09:00:38;;;;;;;;;;;20.60;62.50;;;;;;10220893;28;93651;-41
2023/09/26 09:05:44;;;;;;;;;;;20.70;62.70;;;;;;10238896;28;94709;-41
2023/09/26 09:10:53;;;;;;;;;;;20.70;62.60;;;;;;10251942;28;94878;-43
2023/09/26 09:16:08;;;;;;;;;;;20.60;62.50;;;;;;10237468;28;92546;-40
2023/09/26 09:21:27;;;;;;;;;;;20.70;62.60;;;;;;10234740;28;95111;-43
2023/09/26 09:26:31;;;;;;;;;;;20.70;62.40;;;;;;10232623;28;94491;-42
2023/09/26 09:31:33;;;;;;;;;;;20.70;62.40;;;;;;10220136;28;96851;-42
2023/09/26 09:36:37;;;;;;;;;;;20.70;62.40;;;;;;10234589;28;94456;-41
2023/09/26 09:41:39;;;;;;;;;;;20.70;62.30;;;;;;10235811;28;94510;-42
2023/09/26 09:46:42;;;;;;;;;;;20.70;62.30;;;;;;10241022;28;94387;-41
2023/09/26 09:51:45;;;;;;;;;;;20.70;62.20;;;;;;10232138;28;94732;-41
2023/09/26 09:56:51;;;;;;;;;;;20.80;62.20;;;;;;10230983;28;94693;-41
2023/09/26 10:01:54;;;;;;;;;;;20.80;62.20;;;;;;10255560;28;93398;-44
2023/09/26 10:06:57;;;;;;;;;;;20.80;62.20;;;;;;10265258;28;93176;-41
2023/09/26 10:11:59;;;;;;;;;;;20.80;62.20;;;;;;10254476;28;93463;-44
2023/09/26 10:17:04;;;;;;;;;;;20.80;62.20;;;;;;10251978;28;94604;-43
2023/09/26 10:22:14;;;;;;;;;;;20.80;62.20;;;;;;10238311;28;96987;-41
2023/09/26 10:27:31;;;;;;;;;;;20.80;62.20;;;;;;10245914;28;93354;-42
2023/09/26 10:32:52;;;;;;;;;;;20.90;62.00;;;;;;10259912;28;94659;-40
2023/09/26 10:38:06;;;;;;;;;;;20.90;61.70;;;;;;10248486;28;94556;-42
2023/09/26 10:43:08;;;;;;;;;;;20.90;61.30;;;;;;10254559;28;93887;-40
2023/09/26 10:48:30;;;;;;;;;;;20.90;61.10;;;;;;10174077;28;1849842;-40
2023/09/26 10:53:32;;;;;;;;;;;20.90;60.90;;;;;;10243894;28;93810;-41
2023/09/26 10:58:34;;;;;;;;;;;20.90;60.70;;;;;;10240517;28;93770;-41
2023/09/26 11:03:36;;;;;;;;;;;20.90;60.60;;;;;;10231616;28;94466;-43
2023/09/26 11:08:38;;;;;;;;;;;20.90;60.30;;;;;;10232242;28;93438;-41
2023/09/26 11:13:41;;;;;;;;;;;21.00;60.00;;;;;;10229735;28;95281;-40
2023/09/26 11:18:43;;;;;;;;;;;21.00;59.90;;;;;;10235773;28;94860;-40
2023/09/26 11:23:45;;;;;;;;;;;21.00;59.80;;;;;;10226428;28;94464;-41
2023/09/26 11:28:47;;;;;;;;;;;21.10;59.70;;;;;;10238086;28;93559;-42
2023/09/26 11:33:49;;;;;;;;;;;21.10;59.60;;;;;;10238835;28;94512;-42
2023/09/26 11:38:51;;;;;;;;;;;21.10;59.50;;;;;;10239486;28;93691;-40
2023/09/26 11:43:55;;;;;;;;;;;21.10;59.40;;;;;;10238372;28;93423;-40
2023/09/26 11:48:57;;;;;;;;;;;21.20;59.20;;;;;;10225344;28;94092;-41
2023/09/26 11:53:59;;;;;;;;;;;21.10;59.10;;;;;;10232056;28;93820;-42
2023/09/26 11:59:02;;;;;;;;;;;21.20;58.90;;;;;;10237701;28;94445;-41
2023/09/26 12:04:05;;;;;;;;;;;21.20;58.90;;;;;;10247819;28;95785;-45
2023/09/26 12:09:11;;;;;;;;;;;21.20;58.70;;;;;;10236322;28;95287;-42
2023/09/26 12:14:15;;;;;;;;;;;21.20;58.70;;;;;;10250335;28;93441;-40
2023/09/26 12:19:22;;;;;;;;;;;21.20;58.60;;;;;;10269765;28;94575;-41
2023/09/26 12:24:24;;;;;;;;;;;21.20;58.60;;;;;;10238738;28;93481;-44
2023/09/26 12:29:26;;;;;;;;;;;21.20;58.50;;;;;;10236519;28;94616;-41
2023/09/26 12:34:27;;;;;;;;;;;21.20;58.40;;;;;;10235239;28;93798;-41
2023/09/26 12:39:29;;;;;;;;;;;21.20;58.40;;;;;;10275072;28;92557;-44
2023/09/26 12:44:34;;;;;;;;;;;21.20;58.40;;;;;;10258335;28;94385;-44
2023/09/26 12:49:38;;;;;;;;;;;21.20;58.40;;;;;;10256728;28;93408;-41
2023/09/26 12:54:41;;;;;;;;;;;21.20;58.30;;;;;;10247492;28;96042;-40
2023/09/26 12:59:43;;;;;;;;;;;21.20;58.30;;;;;;10258724;28;94498;-40
2023/09/26 13:04:45;;;;;;;;;;;21.20;58.20;;;;;;10235399;28;94388;-40
2023/09/26 13:09:46;;;;;;;;;;;21.20;57.80;;;;;;10243905;28;94717;-42
2023/09/26 13:14:48;;;;;;;;;;;21.30;57.90;;;;;;10244172;28;94475;-40
2023/09/26 13:19:50;;;;;;;;;;;21.20;57.80;;;;;;10243478;28;94746;-40
2023/09/26 13:24:52;;;;;;;;;;;21.20;57.80;;;;;;10245059;28;94173;-41
2023/09/26 13:29:53;;;;;;;;;;;21.20;57.80;;;;;;10256667;28;92905;-46
2023/09/26 13:34:55;;;;;;;;;;;21.20;57.80;;;;;;10254073;28;94214;-42
2023/09/26 13:39:57;;;;;;;;;;;21.20;57.80;;;;;;10239527;28;93826;-40
2023/09/26 13:44:59;;;;;;;;;;;21.20;57.80;;;;;;10242694;28;96714;-41
2023/09/26 13:50:00;;;;;;;;;;;21.20;57.80;;;;;;10251262;28;93447;-41
2023/09/26 13:55:02;;;;;;;;;;;21.20;57.80;;;;;;10249273;28;94938;-40
2023/09/26 14:00:05;;;;;;;;;;;21.20;57.80;;;;;;10233730;28;93486;-41
2023/09/26 14:05:07;;;;;;;;;;;21.20;57.80;;;;;;10235832;28;93935;-42
2023/09/26 14:10:12;;;;;;;;;;;21.10;57.70;;;;;;10232836;28;94559;-41
2023/09/26 14:15:13;;;;;;;;;;;21.10;57.70;;;;;;10246084;28;94459;-41
2023/09/26 14:20:16;;;;;;;;;;;21.10;57.70;;;;;;10235787;28;93668;-41
2023/09/26 14:25:17;;;;;;;;;;;21.10;57.50;;;;;;10233344;28;93552;-42
2023/09/26 14:30:19;;;;;;;;;;;21.10;57.40;;;;;;10245726;28;94432;-42
2023/09/26 14:35:21;;;;;;;;;;;21.10;57.40;;;;;;10237091;28;96857;-42
2023/09/26 14:40:23;;;;;;;;;;;21.20;57.50;;;;;;10235927;28;94942;-41
2023/09/26 14:45:25;;;;;;;;;;;21.10;57.30;;;;;;10218444;28;95502;-42
2023/09/26 14:50:31;;;;;;;;;;;21.10;57.30;;;;;;10231874;28;94666;-43
2023/09/26 14:55:33;;;;;;;;;;;21.10;57.30;;;;;;10234483;28;94805;-41
2023/09/26 15:00:34;;;;;;;;;;;21.10;57.30;;;;;;10238427;28;93479;-42
2023/09/26 15:05:39;;;;;;;;;;;21.20;57.30;;;;;;10238243;28;93951;-41
2023/09/26 15:10:41;;;;;;;;;;;21.20;57.40;;;;;;10244061;28;92942;-43
2023/09/26 15:15:43;;;;;;;;;;;21.20;57.30;;;;;;10239558;28;93808;-42
2023/09/26 15:20:44;;;;;;;;;;;21.20;57.30;;;;;;10253706;28;94048;-40
2023/09/26 15:25:46;;;;;;;;;;;21.20;57.20;;;;;;10250011;28;96178;-41
2023/09/26 15:30:48;;;;;;;;;;;21.20;57.20;;;;;;10263287;28;94515;-40
2023/09/26 15:35:49;;;;;;;;;;;21.20;57.10;;;;;;10262997;28;94572;-42
2023/09/26 15:41:19;;;;;;;;;;;21.20;57.10;;;;;;10261561;28;94114;-41
2023/09/26 15:46:23;;;;;;;;;;;21.20;57.10;;;;;;10236901;28;94009;-41
2023/09/26 15:51:25;;;;;;;;;;;21.20;57.10;;;;;;10247867;28;93467;-41
2023/09/26 15:56:27;;;;;;;;;;;21.20;57.00;;;;;;10247101;28;93459;-42
2023/09/26 16:01:29;;;;;;;;;;;21.20;57.00;;;;;;10238180;28;93421;-44
2023/09/26 16:06:32;;;;;;;;;;;21.20;57.00;;;;;;10237397;28;93618;-42
2023/09/26 16:11:33;;;;;;;;;;;21.20;56.90;;;;;;10235966;28;94144;-41
2023/09/26 16:16:35;;;;;;;;;;;21.20;56.90;;;;;;10235718;28;96881;-41
2023/09/26 16:21:38;;;;;;;;;;;21.30;56.90;;;;;;10260798;28;94571;-40
2023/09/26 16:26:39;;;;;;;;;;;21.30;56.90;;;;;;10254717;28;94629;-43
2023/09/26 16:31:41;;;;;;;;;;;21.20;57.30;;;;;;10251562;28;93404;-45
2023/09/26 16:36:44;;;;;;;;;;;21.30;58.10;;;;;;10250867;28;94834;-41
2023/09/26 16:41:46;;;;;;;;;;;21.30;58.70;;;;;;10240734;28;93872;-42
2023/09/26 16:46:47;;;;;;;;;;;21.30;59.20;;;;;;10236269;28;94414;-45
2023/09/26 16:51:49;;;;;;;;;;;21.30;59.30;;;;;;10227382;28;94116;-45
2023/09/26 16:56:51;;;;;;;;;;;21.30;59.80;;;;;;10243383;28;94664;-41
2023/09/26 17:01:53;;;;;;;;;;;21.40;60.00;;;;;;10266617;28;94127;-41
2023/09/26 17:06:56;;;;;;;;;;;21.30;60.20;;;;;;10258082;28;97598;-40
2023/09/26 17:11:58;;;;;;;;;;;21.30;60.00;;;;;;10246818;28;94749;-41
2023/09/26 17:17:00;;;;;;;;;;;21.30;59.80;;;;;;10245462;28;95210;-42
2023/09/26 17:22:04;;;;;;;;;;;21.30;59.60;;;;;;10235684;28;93977;-40
2023/09/26 17:27:06;;;;;;;;;;;21.30;59.40;;;;;;10236087;28;97139;-42
2023/09/26 17:32:08;;;;;;;;;;;21.20;59.30;;;;;;10235610;28;93457;-40
2023/09/26 17:37:10;;;;;;;;;;;21.20;59.10;;;;;;10245016;28;94502;-44
2023/09/26 17:42:11;;;;;;;;;;;21.20;59.00;;;;;;10236672;28;93935;-43
2023/09/26 17:47:13;;;;;;;;;;;21.20;58.90;;;;;;10234815;28;94438;-43
2023/09/26 17:52:15;;;;;;;;;;;21.20;58.70;;;;;;10225451;28;94252;-41
2023/09/26 17:57:16;;;;;;;;;;;21.20;58.70;;;;;;10229950;28;96727;-40
2023/09/26 18:02:18;;;;;;;;;;;21.20;58.60;;;;;;10234697;28;93252;-42
2023/09/26 18:07:20;;;;;;;;;;;21.20;58.50;;;;;;10233649;28;94526;-41
2023/09/26 18:12:22;;;;;;;;;;;21.20;58.50;;;;;;10231979;28;93418;-43
2023/09/26 18:17:24;;;;;;;;;;;21.10;58.30;;;;;;10232072;28;94448;-42
2023/09/26 18:22:26;;;;;;;;;;;21.20;58.30;;;;;;10232156;28;94554;-41
2023/09/26 18:27:28;;;;;;;;;;;21.10;58.30;;;;;;10242430;28;94430;-41
2023/09/26 18:32:30;;;;;;;;;;;21.10;58.10;;;;;;10237547;28;93925;-41
2023/09/26 18:37:32;;;;;;;;;;;21.10;58.20;;;;;;10239321;28;95436;-44
2023/09/26 18:42:33;;;;;;;;;;;21.10;58.10;;;;;;10232955;28;94840;-41
2023/09/26 18:47:35;;;;;;;;;;;21.10;58.00;;;;;;10228522;28;96850;-44
2023/09/26 18:52:37;;;;;;;;;;;21.10;58.10;;;;;;10224132;28;93570;-41
2023/09/26 18:57:39;;;;;;;;;;;21.10;58.00;;;;;;10231075;28;94565;-41
2023/09/26 19:02:41;;;;;;;;;;;21.10;57.90;;;;;;10232428;28;94428;-40
2023/09/26 19:07:43;;;;;;;;;;;21.10;58.30;;;;;;10236061;28;93523;-40
2023/09/26 19:12:46;;;;;;;;;;;21.10;58.50;;;;;;10232356;28;93387;-41
2023/09/26 19:17:47;;;;;;;;;;;21.10;58.50;;;;;;10233782;28;94589;-40
2023/09/26 19:22:49;;;;;;;;;;;21.00;58.30;;;;;;10240678;28;92679;-41
2023/09/26 19:27:51;;;;;;;;;;;21.10;58.30;;;;;;10232421;28;93056;-40
2023/09/26 19:32:53;;;;;;;;;;;21.10;58.20;;;;;;10234354;28;94669;-40
2023/09/26 19:37:55;;;;;;;;;;;21.10;58.10;;;;;;10225402;28;97018;-41
2023/09/26 19:42:57;;;;;;;;;;;21.10;58.00;;;;;;10233033;28;94797;-41
2023/09/26 19:47:59;;;;;;;;;;;21.10;57.90;;;;;;10237604;28;93460;-42
2023/09/26 19:53:01;;;;;;;;;;;21.10;57.70;;;;;;10237620;28;94533;-44
2023/09/26 19:58:02;;;;;;;;;;;21.10;57.70;;;;;;10236391;28;94771;-42
2023/09/26 20:03:04;;;;;;;;;;;21.10;57.70;;;;;;10237188;28;94408;-45
2023/09/26 20:08:06;;;;;;;;;;;21.10;57.70;;;;;;10247199;28;94342;-42
2023/09/26 20:13:08;;;;;;;;;;;21.10;57.70;;;;;;10236109;28;92037;-43
2023/09/26 20:18:10;;;;;;;;;;;21.10;57.70;;;;;;10232659;28;94590;-41
2023/09/26 20:23:12;;;;;;;;;;;21.10;57.70;;;;;;10238937;28;93869;-43
2023/09/26 20:28:14;;;;;;;;;;;21.10;58.00;;;;;;10249561;28;96870;-41
2023/09/26 20:33:15;;;;;;;;;;;21.10;58.10;;;;;;10256942;28;93690;-41
2023/09/26 20:38:17;;;;;;;;;;;21.10;58.40;;;;;;10246033;28;94542;-42
2023/09/26 20:43:19;;;;;;;;;;;21.10;58.50;;;;;;10236785;28;94875;-40
2023/09/26 20:48:20;;;;;;;;;;;21.10;58.60;;;;;;10245375;28;93323;-41
2023/09/26 20:53:22;;;;;;;;;;;21.10;58.70;;;;;;10236759;28;95105;-40
2023/09/26 20:58:24;;;;;;;;;;;21.10;58.80;;;;;;10233418;28;93676;-42
2023/09/26 21:03:27;;;;;;;;;;;21.10;59.00;;;;;;10242009;28;93773;-40
2023/09/26 21:08:31;;;;;;;;;;;21.10;59.10;;;;;;10235817;28;94503;-41
2023/09/26 21:13:32;;;;;;;;;;;21.10;59.20;;;;;;10234072;28;94338;-40
2023/09/26 21:18:34;;;;;;;;;;;21.10;59.40;;;;;;10234042;28;96036;-41
2023/09/26 21:23:36;;;;;;;;;;;21.10;59.40;;;;;;10231447;28;94146;-41
2023/09/26 21:28:38;;;;;;;;;;;21.00;59.30;;;;;;10234091;28;94388;-40
2023/09/26 21:33:40;;;;;;;;;;;21.00;59.40;;;;;;10244415;28;94381;-41
2023/09/26 21:38:42;;;;;;;;;;;21.10;59.50;;;;;;10237515;28;94616;-42
2023/09/26 21:43:44;;;;;;;;;;;21.00;59.40;;;;;;10244298;28;94828;-42
2023/09/26 21:48:45;;;;;;;;;;;21.00;59.50;;;;;;10233491;28;94529;-41
2023/09/26 21:53:47;;;;;;;;;;;21.10;59.70;;;;;;10232362;28;92685;-43
2023/09/26 21:58:49;;;;;;;;;;;21.00;59.70;;;;;;10232788;28;94498;-41
2023/09/26 22:03:51;;;;;;;;;;;21.00;59.90;;;;;;10238332;28;94512;-40
2023/09/26 22:08:53;;;;;;;;;;;21.00;59.80;;;;;;10232187;28;96471;-41
2023/09/26 22:13:55;;;;;;;;;;;21.00;59.90;;;;;;10232893;28;94387;-42
2023/09/26 22:18:57;;;;;;;;;;;21.00;59.90;;;;;;10233834;28;95212;-43
2023/09/26 22:23:58;;;;;;;;;;;21.00;60.00;;;;;;10233286;28;93469;-40
2023/09/26 22:29:00;;;;;;;;;;;21.00;60.00;;;;;;10231628;28;94552;-44
2023/09/26 22:34:02;;;;;;;;;;;21.00;60.10;;;;;;10240474;28;96262;-41
2023/09/26 22:39:04;;;;;;;;;;;21.00;60.10;;;;;;10231540;28;93388;-42
2023/09/26 22:44:06;;;;;;;;;;;20.90;60.10;;;;;;10234602;28;93145;-41
2023/09/26 22:49:08;;;;;;;;;;;20.90;60.30;;;;;;10227034;28;94554;-43
2023/09/26 22:54:10;;;;;;;;;;;20.90;60.30;;;;;;10232848;28;93881;-41
2023/09/26 22:59:12;;;;;;;;;;;20.90;60.40;;;;;;10222617;28;96242;-43
2023/09/26 23:04:13;;;;;;;;;;;20.90;60.30;;;;;;10228856;28;94934;-40
2023/09/26 23:09:15;;;;;;;;;;;20.90;60.40;;;;;;10232128;28;93291;-41
2023/09/26 23:14:17;;;;;;;;;;;20.90;60.50;;;;;;10232647;28;94489;-40
2023/09/26 23:19:18;;;;;;;;;;;20.90;60.50;;;;;;10248785;28;93490;-40
2023/09/26 23:24:20;;;;;;;;;;;20.90;60.30;;;;;;10240036;28;93328;-40
2023/09/26 23:29:22;;;;;;;;;;;20.90;59.90;;;;;;10239305;28;93305;-42
2023/09/26 23:34:25;;;;;;;;;;;20.90;59.40;;;;;;10251249;28;94530;-41
2023/09/26 23:39:27;;;;;;;;;;;20.90;59.10;;;;;;10243674;28;93419;-41
2023/09/26 23:44:29;;;;;;;;;;;20.90;58.70;;;;;;10236847;28;94498;-40
2023/09/26 23:49:33;;;;;;;;;;;20.90;58.50;;;;;;10235043;28;95813;-42
2023/09/26 23:54:34;;;;;;;;;;;20.90;58.30;;;;;;10237673;28;94445;-42
2023/09/26 23:59:37;;;;;;;;;;;20.90;58.20;;;;;;10237399;28;93777;-41
